Sint-Katelijne-Waver, Belgium
Current Conditions -  °F | °C
As of 12:50 PM on Sunday 21 Dec 2014 (Local Time) from EBAW Reporting Station
Broken Clouds Broken Clouds  
Wind Chill: 40°   Ceiling: 1300
Heat Index: 45°   Visibility: 6mi
Dew Point: 41°   Wind: 9mph
Humidity: 87%   Direction: 230°SW
Pressure: 30.36"   Gusts: NA
Location:  51.07°N, 4.53°E
Report Text: EBAW 211150Z 23008KT 210V270 9999 BKN013 07/05 Q1028 NOSIG
Loading
Personal Weather Stations






























Interactive Weather Map New forecast layout! Learn more

10-Day Weather Forecast

Advertisements
Track Severe Weather on mobile